KPVW/PVW METAR and TAF weather

Enter ICAO airport designator
Station Type Date Time Source
KPVW METAR 2020/04/06 11:35 UTC NOAA

KPVW 061135Z AUTO 22008KT 10SM OVC010 13/11 A2994 RMK AO2 T01330113


Station Type Date Time Source
KPVW Decoded METAR 2020/04/06 11:35 UTC NOAA

Plainview, Hale County Airport, TX, United States (KPVW) 34-10-05N 101-43-02W
Apr 06, 2020 - 07:35 AM EDT / 2020.04.06 1135 UTC
Wind: from the SW (220 degrees) at 9 MPH (8 KT):0
Visibility: 10 mile(s):0
Sky conditions: overcast
Temperature: 55.9 F (13.3 C)
Dew Point: 52.3 F (11.3 C)
Relative Humidity: 87%
Pressure (altimeter): 29.94 in. Hg (1013 hPa)
ob: KPVW 061135Z AUTO 22008KT 10SM OVC010 13/11 A2994 RMK AO2 T01330113
cycle: 11

Station Type Date Time Source
KPVW TAF 2020/04/06 12:22 UTC NOAA

TAF KPVW 061120Z 0612/0712 21011KT P6SM OVC010
FM061500 22015KT P6SM BKN040
FM070000 19011KT P6SM SCT250

Example: see airport list